createdAt,value
2019-01-09T00:00:45.150Z,1.70
2019-01-09T00:01:45.123Z,2.20
2019-01-09T00:02:45.137Z,2.10
2019-01-09T00:03:45.103Z,2.50
2019-01-09T00:04:45.093Z,2.10
2019-01-09T00:05:45.086Z,2.10
2019-01-09T00:06:45.103Z,1.50
2019-01-09T00:07:45.101Z,1.40
2019-01-09T00:08:45.066Z,1.70
2019-01-09T00:09:45.041Z,1.60
2019-01-09T00:10:45.031Z,1.50
2019-01-09T00:11:45.025Z,1.40
2019-01-09T00:12:45.012Z,1.40
2019-01-09T00:13:45.003Z,1.60
2019-01-09T00:14:44.975Z,1.80
2019-01-09T00:15:44.970Z,1.90
2019-01-09T00:16:44.964Z,1.70
2019-01-09T00:17:44.945Z,1.60
2019-01-09T00:18:44.954Z,1.50
2019-01-09T00:19:44.925Z,1.60
2019-01-09T00:20:44.917Z,1.40
2019-01-09T00:21:44.915Z,1.60
2019-01-09T00:22:44.887Z,1.30
2019-01-09T00:23:44.913Z,1.50
2019-01-09T00:24:44.873Z,1.60
2019-01-09T00:25:44.861Z,1.50
2019-01-09T00:26:44.845Z,1.70
2019-01-09T00:27:44.837Z,1.70
2019-01-09T00:28:44.872Z,1.50
2019-01-09T00:29:44.831Z,1.50
2019-01-09T00:30:44.804Z,1.20
2019-01-09T00:31:44.796Z,1.40
2019-01-09T00:32:44.793Z,1.30
2019-01-09T00:33:44.807Z,1.30
2019-01-09T00:34:44.768Z,1.30
2019-01-09T00:35:44.762Z,1.20
2019-01-09T00:36:44.749Z,1.30
2019-01-09T00:37:44.737Z,1.40
2019-01-09T00:38:44.762Z,1.30
2019-01-09T00:39:44.719Z,1.40
2019-01-09T00:40:44.710Z,1.60
2019-01-09T00:41:44.688Z,1.30
2019-01-09T00:42:44.682Z,1.30
2019-01-09T00:43:44.685Z,1.40
2019-01-09T00:45:12.194Z,1.40
2019-01-09T00:45:45.700Z,1.40
2019-01-09T00:46:44.657Z,1.40
2019-01-09T00:47:44.627Z,1.40
2019-01-09T00:48:44.639Z,1.30
2019-01-09T00:49:44.628Z,1.50
2019-01-09T00:50:44.601Z,1.40
2019-01-09T00:51:44.584Z,1.40
2019-01-09T00:52:44.595Z,1.30
2019-01-09T00:53:44.565Z,1.20
2019-01-09T00:54:44.596Z,1.30
2019-01-09T00:55:44.539Z,1.30
2019-01-09T00:56:44.537Z,1.30
2019-01-09T00:57:44.528Z,1.20
2019-01-09T00:58:44.522Z,1.10
2019-01-09T00:59:44.535Z,1.20
2019-01-09T01:00:44.496Z,1.30
2019-01-09T01:01:44.559Z,1.10
2019-01-09T01:02:44.471Z,1.20
2019-01-09T01:03:44.462Z,1.20
2019-01-09T01:04:44.472Z,1.00
2019-01-09T01:05:46.160Z,1.30
2019-01-09T01:06:44.421Z,1.00
2019-01-09T01:07:44.413Z,1.00
2019-01-09T01:08:44.404Z,1.20
2019-01-09T01:09:44.407Z,1.20
2019-01-09T01:10:44.401Z,1.00
2019-01-09T01:11:44.368Z,1.10
2019-01-09T01:12:44.358Z,1.40
2019-01-09T01:13:44.349Z,1.20
2019-01-09T01:14:44.364Z,1.00
2019-01-09T01:15:44.330Z,1.10
2019-01-09T01:16:44.336Z,1.20
2019-01-09T01:17:44.306Z,1.20
2019-01-09T01:18:44.291Z,1.10
2019-01-09T01:19:44.307Z,1.10
2019-01-09T01:20:44.280Z,1.20
2019-01-09T01:21:44.267Z,1.30
2019-01-09T01:22:44.258Z,1.30
2019-01-09T01:23:44.242Z,1.20
2019-01-09T01:24:44.257Z,1.30
2019-01-09T01:25:44.222Z,1.00
2019-01-09T01:26:44.216Z,1.20
2019-01-09T01:27:44.195Z,1.10
2019-01-09T01:28:44.185Z,1.00
2019-01-09T01:29:44.203Z,1.00
2019-01-09T01:30:44.179Z,1.20
2019-01-09T01:31:44.154Z,1.10
2019-01-09T01:32:44.153Z,0.90
2019-01-09T01:33:44.146Z,1.20
2019-01-09T01:34:44.157Z,1.00
2019-01-09T01:35:44.115Z,1.20
2019-01-09T01:36:44.108Z,1.10
2019-01-09T01:37:44.094Z,1.10
2019-01-09T01:38:44.094Z,0.90
2019-01-09T01:39:44.076Z,1.10
2019-01-09T01:40:44.083Z,1.00
2019-01-09T01:41:44.050Z,1.00
2019-01-09T01:42:44.054Z,1.10
2019-01-09T01:43:44.029Z,0.90
2019-01-09T01:44:44.026Z,1.30
2019-01-09T01:45:44.032Z,1.10
2019-01-09T01:46:43.997Z,1.00
2019-01-09T01:47:43.989Z,1.10
2019-01-09T01:48:43.974Z,1.00
2019-01-09T01:49:43.972Z,1.20
2019-01-09T01:50:43.974Z,0.90
2019-01-09T01:51:43.945Z,1.10
2019-01-09T01:52:43.934Z,1.20
2019-01-09T01:53:43.921Z,1.00
2019-01-09T01:54:43.911Z,1.00
2019-01-09T01:55:43.929Z,0.90
2019-01-09T01:56:43.892Z,1.10
2019-01-09T01:57:43.885Z,1.00
2019-01-09T01:58:43.876Z,1.80
2019-01-09T01:59:43.866Z,1.60
2019-01-09T02:00:43.898Z,1.80
2019-01-09T02:01:43.841Z,2.00
2019-01-09T02:02:43.828Z,5.30
2019-01-09T02:03:43.822Z,2.70
2019-01-09T02:04:43.819Z,1.10
2019-01-09T02:05:43.822Z,1.10
2019-01-09T02:06:43.788Z,1.20
2019-01-09T02:07:43.781Z,1.40
2019-01-09T02:08:43.768Z,2.30
2019-01-09T02:09:43.758Z,1.70
2019-01-09T02:10:43.764Z,1.00
2019-01-09T02:11:43.736Z,1.30
2019-01-09T02:12:43.722Z,1.70
2019-01-09T02:13:43.728Z,1.10
2019-01-09T02:14:43.701Z,1.00
2019-01-09T02:15:43.714Z,1.10
2019-01-09T02:16:43.684Z,0.90
2019-01-09T02:17:43.670Z,0.90
2019-01-09T02:18:43.659Z,1.10
2019-01-09T02:19:43.644Z,1.10
2019-01-09T02:20:43.684Z,1.10
2019-01-09T02:21:43.626Z,1.00
2019-01-09T02:22:43.624Z,0.90
2019-01-09T02:23:43.605Z,0.70
2019-01-09T02:24:43.611Z,0.90
2019-01-09T02:25:43.583Z,0.90
2019-01-09T02:26:43.593Z,0.90
2019-01-09T02:27:43.565Z,0.90
2019-01-09T02:28:43.563Z,0.70
2019-01-09T02:29:43.544Z,0.90
2019-01-09T02:30:43.536Z,0.80
2019-01-09T02:31:43.554Z,1.00
2019-01-09T02:32:43.515Z,1.30
2019-01-09T02:33:43.496Z,0.80
2019-01-09T02:34:43.494Z,0.90
2019-01-09T02:35:43.477Z,0.90
2019-01-09T02:36:43.473Z,1.00
2019-01-09T02:37:43.483Z,0.90
2019-01-09T02:38:43.451Z,0.90
2019-01-09T02:39:43.435Z,0.80
2019-01-09T02:40:43.431Z,0.90
2019-01-09T02:41:43.418Z,0.90
2019-01-09T02:42:43.434Z,0.90
2019-01-09T02:43:43.402Z,0.80
2019-01-09T02:44:43.387Z,0.70
2019-01-09T02:45:43.386Z,0.70
2019-01-09T02:46:43.370Z,1.30
2019-01-09T02:47:43.412Z,1.50
2019-01-09T02:48:43.346Z,1.30
2019-01-09T02:49:43.335Z,0.90
2019-01-09T02:50:43.324Z,1.20
2019-01-09T02:51:43.332Z,1.10
2019-01-09T02:52:43.296Z,1.40
2019-01-09T02:53:43.307Z,2.00
2019-01-09T02:54:43.275Z,0.90
2019-01-09T02:55:43.272Z,0.90
2019-01-09T02:56:43.254Z,0.90
2019-01-09T02:57:43.247Z,0.80
2019-01-09T02:58:43.270Z,0.90
2019-01-09T02:59:43.228Z,1.00
2019-01-09T03:00:43.224Z,0.80
2019-01-09T03:01:43.224Z,0.80
2019-01-09T03:02:43.193Z,1.40
2019-01-09T03:03:43.184Z,0.80
2019-01-09T03:04:43.184Z,0.90
2019-01-09T03:05:43.170Z,0.80
2019-01-09T03:06:43.172Z,0.80
2019-01-09T03:07:43.144Z,0.90
2019-01-09T03:08:43.130Z,0.90
2019-01-09T03:09:43.149Z,1.00
2019-01-09T03:10:43.112Z,1.00
2019-01-09T03:11:43.106Z,0.80
2019-01-09T03:12:52.258Z,0.80
2019-01-09T03:13:43.074Z,0.90
2019-01-09T03:14:43.106Z,0.90
2019-01-09T03:15:43.052Z,0.80
2019-01-09T03:16:43.054Z,0.90
2019-01-09T03:17:43.056Z,1.00
2019-01-09T03:18:43.023Z,1.00
2019-01-09T03:19:43.016Z,2.30
2019-01-09T03:20:43.013Z,1.50
2019-01-09T03:21:42.991Z,1.20
2019-01-09T03:22:43.003Z,1.40
2019-01-09T03:23:42.972Z,1.70
2019-01-09T03:24:42.958Z,1.30
2019-01-09T03:25:42.970Z,2.00
2019-01-09T03:26:42.944Z,1.10
2019-01-09T03:27:42.928Z,1.70
2019-01-09T03:28:42.922Z,1.00
2019-01-09T03:29:42.904Z,0.90
2019-01-09T03:30:42.942Z,0.80
2019-01-09T03:31:42.888Z,1.00
2019-01-09T03:32:42.908Z,0.90
2019-01-09T03:33:42.868Z,0.80
2019-01-09T03:34:42.864Z,0.80
2019-01-09T03:35:42.847Z,0.60
2019-01-09T03:36:42.858Z,0.80
2019-01-09T03:37:42.827Z,0.80
2019-01-09T03:38:42.812Z,0.80
2019-01-09T03:39:42.823Z,0.80
2019-01-09T03:40:42.788Z,1.00
2019-01-09T03:41:42.804Z,0.70
2019-01-09T03:42:42.875Z,0.70
2019-01-09T03:43:42.770Z,1.00
2019-01-09T03:44:42.746Z,0.90
2019-01-09T03:45:42.746Z,1.00
2019-01-09T03:46:42.749Z,0.90
2019-01-09T03:47:42.760Z,0.90
2019-01-09T03:48:42.706Z,1.40
2019-01-09T03:49:42.783Z,0.80
2019-01-09T03:50:42.688Z,1.60
2019-01-09T03:51:42.678Z,4.50
2019-01-09T03:52:42.727Z,0.90
2019-01-09T03:53:42.651Z,2.00
2019-01-09T03:54:42.662Z,0.90
2019-01-09T03:55:42.651Z,0.70
2019-01-09T03:56:42.619Z,0.70
2019-01-09T03:57:42.654Z,0.90
2019-01-09T03:58:42.596Z,0.90
2019-01-09T03:59:42.590Z,0.60
2019-01-09T04:00:42.585Z,0.80
2019-01-09T04:01:42.593Z,0.80
2019-01-09T04:02:42.582Z,0.90
2019-01-09T04:03:42.643Z,1.00
2019-01-09T04:04:42.545Z,0.90
2019-01-09T04:05:42.555Z,1.00
2019-01-09T04:06:42.622Z,0.90
2019-01-09T04:07:42.565Z,0.90
2019-01-09T04:08:42.568Z,0.90
2019-01-09T04:09:42.517Z,0.90
2019-01-09T04:10:42.473Z,0.90
2019-01-09T04:11:42.478Z,1.30
2019-01-09T04:12:42.463Z,1.00
2019-01-09T04:13:42.509Z,1.10
2019-01-09T04:14:42.446Z,1.00
2019-01-09T04:15:42.421Z,0.80
2019-01-09T04:16:42.410Z,0.80
2019-01-09T04:17:42.397Z,0.90
2019-01-09T04:18:42.416Z,1.00
2019-01-09T04:19:42.378Z,0.90
2019-01-09T04:20:42.372Z,0.90
2019-01-09T04:21:42.376Z,0.90
2019-01-09T04:22:42.358Z,0.70
2019-01-09T04:23:42.359Z,0.90
2019-01-09T04:24:42.325Z,1.10
2019-01-09T04:25:42.316Z,1.00
2019-01-09T04:26:42.315Z,0.90
2019-01-09T04:27:42.296Z,1.00
2019-01-09T04:28:42.307Z,0.80
2019-01-09T04:29:42.285Z,0.80
2019-01-09T04:30:42.264Z,1.00
2019-01-09T04:31:42.259Z,1.10
2019-01-09T04:32:42.239Z,1.10
2019-01-09T04:33:42.243Z,1.10
2019-01-09T04:34:42.229Z,0.90
2019-01-09T04:35:42.210Z,0.90
2019-01-09T04:36:51.106Z,0.90
2019-01-09T04:37:43.181Z,0.90
2019-01-09T04:38:42.209Z,1.10
2019-01-09T04:39:42.175Z,1.10
2019-01-09T04:40:42.172Z,0.90
2019-01-09T04:41:42.151Z,0.90
2019-01-09T04:42:42.134Z,1.00
2019-01-09T04:43:42.139Z,0.90
2019-01-09T04:44:42.112Z,1.00
2019-01-09T04:45:42.106Z,1.20
2019-01-09T04:46:42.086Z,0.90
2019-01-09T04:47:42.103Z,1.00
2019-01-09T04:48:50.356Z,0.90
2019-01-09T04:49:42.071Z,0.90
2019-01-09T04:50:51.326Z,1.00
2019-01-09T04:51:42.039Z,1.20
2019-01-09T04:52:42.031Z,1.10
2019-01-09T04:53:42.073Z,0.80
2019-01-09T04:54:42.076Z,1.00
2019-01-09T04:55:42.018Z,1.00
2019-01-09T04:56:41.990Z,1.00
2019-01-09T04:57:41.983Z,1.10
2019-01-09T04:58:41.963Z,1.10
2019-01-09T04:59:42.015Z,1.30
2019-01-09T05:00:41.955Z,1.30
2019-01-09T05:01:41.929Z,1.00
2019-01-09T05:02:41.919Z,1.10
2019-01-09T05:03:41.910Z,1.40
2019-01-09T05:04:41.941Z,1.10
2019-01-09T05:05:41.889Z,1.10
2019-01-09T05:06:41.895Z,1.10
2019-01-09T05:07:41.867Z,1.20
2019-01-09T05:08:41.863Z,1.20
2019-01-09T05:09:41.865Z,0.90
2019-01-09T05:10:41.844Z,1.10
2019-01-09T05:11:41.828Z,1.20
2019-01-09T05:12:41.828Z,1.20
2019-01-09T05:13:41.802Z,1.10
2019-01-09T05:14:41.810Z,1.20
2019-01-09T05:15:41.807Z,1.40
2019-01-09T05:16:41.782Z,1.20
2019-01-09T05:17:41.776Z,1.30
2019-01-09T05:18:41.760Z,1.10
2019-01-09T05:19:41.777Z,1.00
2019-01-09T05:20:41.727Z,1.20
2019-01-09T05:21:41.716Z,1.20
2019-01-09T05:22:41.705Z,1.30
2019-01-09T05:23:41.707Z,0.90
2019-01-09T05:24:41.717Z,1.00
2019-01-09T05:25:41.688Z,1.00
2019-01-09T05:26:41.692Z,0.90
2019-01-09T05:27:41.660Z,1.10
2019-01-09T05:28:41.644Z,0.90
2019-01-09T05:29:41.684Z,1.30
2019-01-09T05:30:41.621Z,1.00
2019-01-09T05:31:41.611Z,1.00
2019-01-09T05:32:41.601Z,1.00
2019-01-09T05:33:41.607Z,0.90
2019-01-09T05:34:41.610Z,1.10
2019-01-09T05:35:41.581Z,1.00
2019-01-09T05:36:41.557Z,1.10
2019-01-09T05:37:41.549Z,1.00
2019-01-09T05:38:41.537Z,0.90
2019-01-09T05:39:41.546Z,1.00
2019-01-09T05:40:41.522Z,1.20
2019-01-09T05:41:41.507Z,1.10
2019-01-09T05:42:41.491Z,1.20
2019-01-09T05:43:41.503Z,1.10
2019-01-09T05:44:41.493Z,1.20
2019-01-09T05:45:41.466Z,1.00
2019-01-09T05:46:41.467Z,1.40
2019-01-09T05:47:41.459Z,1.10
2019-01-09T05:48:41.435Z,1.20
2019-01-09T05:49:41.452Z,1.10
2019-01-09T05:50:41.415Z,1.00
2019-01-09T05:51:41.409Z,1.10
2019-01-09T05:52:41.419Z,1.20
2019-01-09T05:53:41.396Z,1.20
2019-01-09T05:54:41.656Z,1.20
2019-01-09T05:55:41.356Z,0.90
2019-01-09T05:56:41.354Z,1.10
2019-01-09T05:57:41.345Z,1.30
2019-01-09T05:58:41.331Z,1.10
2019-01-09T05:59:41.318Z,1.30
2019-01-09T06:00:41.335Z,1.10
2019-01-09T06:01:41.293Z,1.30
2019-01-09T06:02:41.293Z,1.00
2019-01-09T06:03:41.272Z,1.30
2019-01-09T06:04:41.265Z,1.00
2019-01-09T06:05:41.280Z,1.40
2019-01-09T06:06:41.249Z,1.40
2019-01-09T06:07:41.233Z,1.20
2019-01-09T06:08:41.221Z,1.50
2019-01-09T06:09:41.211Z,1.40
2019-01-09T06:10:41.217Z,1.30
2019-01-09T06:11:41.193Z,1.30
2019-01-09T06:12:41.178Z,1.60
2019-01-09T06:13:41.169Z,1.50
2019-01-09T06:14:41.153Z,1.50
2019-01-09T06:15:41.166Z,1.50
2019-01-09T06:16:41.635Z,1.60
2019-01-09T06:17:41.128Z,1.60
2019-01-09T06:18:41.117Z,1.80
2019-01-09T06:19:41.103Z,1.50
2019-01-09T06:20:41.117Z,1.40
2019-01-09T06:21:41.087Z,1.50
2019-01-09T06:22:41.088Z,1.40
2019-01-09T06:23:41.725Z,1.40
2019-01-09T06:24:41.052Z,1.50
2019-01-09T06:25:41.045Z,1.50
2019-01-09T06:26:41.076Z,1.20
2019-01-09T06:27:41.025Z,1.50
2019-01-09T06:28:41.013Z,1.40
2019-01-09T06:29:40.991Z,1.30
2019-01-09T06:30:40.989Z,1.40
2019-01-09T06:31:40.991Z,1.30
2019-01-09T06:32:40.965Z,1.40
2019-01-09T06:33:40.961Z,1.60
2019-01-09T06:34:40.943Z,1.40
2019-01-09T06:35:40.939Z,1.50
2019-01-09T06:36:40.962Z,1.60
2019-01-09T06:37:40.915Z,1.80
2019-01-09T06:38:40.906Z,1.90
2019-01-09T06:39:40.903Z,1.50
2019-01-09T06:40:40.885Z,1.60
2019-01-09T06:41:41.047Z,1.70
2019-01-09T06:42:40.869Z,2.10
2019-01-09T06:43:40.859Z,2.10
2019-01-09T06:44:40.839Z,1.70
2019-01-09T06:45:40.830Z,1.60
2019-01-09T06:46:40.845Z,1.80
2019-01-09T06:47:40.814Z,1.80
2019-01-09T06:48:40.794Z,2.40
2019-01-09T06:49:40.791Z,2.10
2019-01-09T06:50:40.777Z,2.30
2019-01-09T06:51:40.869Z,1.90
2019-01-09T06:52:40.807Z,2.50
2019-01-09T06:53:40.762Z,3.10
2019-01-09T06:54:40.763Z,3.10
2019-01-09T06:55:40.724Z,4.80
2019-01-09T06:56:40.713Z,4.60
2019-01-09T06:57:40.726Z,4.90
2019-01-09T06:58:40.691Z,4.40
2019-01-09T06:59:40.677Z,3.90
2019-01-09T07:00:40.671Z,4.10
2019-01-09T07:01:40.659Z,3.30
2019-01-09T07:02:40.669Z,4.50
2019-01-09T07:03:40.639Z,3.60
2019-01-09T07:04:40.636Z,3.00
2019-01-09T07:05:40.615Z,2.30
2019-01-09T07:06:40.603Z,2.20
2019-01-09T07:07:40.638Z,1.60
2019-01-09T07:08:40.589Z,1.60
2019-01-09T07:09:40.571Z,2.30
2019-01-09T07:10:40.563Z,1.90
2019-01-09T07:11:40.571Z,1.80
2019-01-09T07:12:40.561Z,2.00
2019-01-09T07:13:40.538Z,1.70
2019-01-09T07:14:40.531Z,2.00
2019-01-09T07:15:40.523Z,1.80
2019-01-09T07:16:40.560Z,1.90
2019-01-09T07:17:40.509Z,2.10
2019-01-09T07:18:40.518Z,1.90
2019-01-09T07:19:40.468Z,2.30
2019-01-09T07:20:40.538Z,2.00
2019-01-09T07:21:45.523Z,2.00
2019-01-09T07:22:41.466Z,2.30
2019-01-09T07:23:40.433Z,1.70
2019-01-09T07:24:40.413Z,1.90
2019-01-09T07:25:40.407Z,1.50
2019-01-09T07:26:40.401Z,1.90
2019-01-09T07:27:40.523Z,1.50
2019-01-09T07:28:41.771Z,1.70
2019-01-09T07:29:40.360Z,1.40
2019-01-09T07:30:40.358Z,1.80
2019-01-09T07:31:40.389Z,1.70
2019-01-09T07:32:40.401Z,1.80
2019-01-09T07:33:42.472Z,1.90
2019-01-09T07:34:40.424Z,1.70
2019-01-09T07:35:40.320Z,1.30
2019-01-09T07:36:40.281Z,1.10
2019-01-09T07:37:44.960Z,1.50
2019-01-09T07:38:41.293Z,1.30
2019-01-09T07:39:40.263Z,1.40
2019-01-09T07:40:40.259Z,1.30
2019-01-09T07:41:40.229Z,1.50
2019-01-09T07:42:40.222Z,1.70
2019-01-09T07:43:40.207Z,1.40
2019-01-09T07:44:40.239Z,1.30
2019-01-09T07:45:40.195Z,1.30
2019-01-09T07:46:40.192Z,1.80
2019-01-09T07:47:40.201Z,2.80
2019-01-09T07:48:40.167Z,5.70
2019-01-09T07:49:40.166Z,6.80
2019-01-09T07:50:40.153Z,6.80
2019-01-09T07:51:40.125Z,2.30
2019-01-09T07:52:40.116Z,2.70
2019-01-09T07:53:40.109Z,1.70
2019-01-09T07:54:40.121Z,1.90
2019-01-09T07:55:40.081Z,1.80
2019-01-09T07:56:40.075Z,2.00
2019-01-09T07:57:40.079Z,1.90
2019-01-09T07:58:40.047Z,1.50
2019-01-09T07:59:40.045Z,1.30
2019-01-09T08:00:40.025Z,1.70
2019-01-09T08:01:40.017Z,2.10
2019-01-09T08:02:40.021Z,1.70
2019-01-09T08:03:40.001Z,1.70
2019-01-09T08:04:39.989Z,1.70
2019-01-09T08:05:39.997Z,2.90
2019-01-09T08:06:39.968Z,1.80
2019-01-09T08:07:39.976Z,1.70
2019-01-09T08:08:40.036Z,1.40
2019-01-09T08:09:39.941Z,1.20
2019-01-09T08:10:39.923Z,1.00
2019-01-09T08:11:39.934Z,1.30
2019-01-09T08:12:39.900Z,1.50
2019-01-09T08:13:39.916Z,1.40
2019-01-09T08:14:39.882Z,1.50
2019-01-09T08:15:39.892Z,1.10
2019-01-09T08:16:39.888Z,1.10
2019-01-09T08:17:39.859Z,1.30
2019-01-09T08:18:39.851Z,1.30
2019-01-09T08:19:39.824Z,1.20
2019-01-09T08:20:39.815Z,1.30
2019-01-09T08:21:39.804Z,1.20
2019-01-09T08:22:39.819Z,1.20
2019-01-09T08:23:39.779Z,1.10
2019-01-09T08:24:39.774Z,1.00
2019-01-09T08:25:39.762Z,1.10
2019-01-09T08:26:39.752Z,1.30
2019-01-09T08:27:39.761Z,1.10
2019-01-09T08:28:39.731Z,1.30
2019-01-09T08:29:39.725Z,1.10
2019-01-09T08:30:39.722Z,0.90
2019-01-09T08:31:39.698Z,1.00
2019-01-09T08:32:39.701Z,1.00
2019-01-09T08:33:39.674Z,0.90
2019-01-09T08:34:39.677Z,1.00
2019-01-09T08:35:39.665Z,1.00
2019-01-09T08:36:39.647Z,1.10
2019-01-09T08:37:39.659Z,1.20
2019-01-09T08:38:39.645Z,1.00
2019-01-09T08:39:39.613Z,1.20
2019-01-09T08:40:39.617Z,1.10
2019-01-09T08:41:39.600Z,1.20
2019-01-09T08:42:39.583Z,1.20
2019-01-09T08:43:39.610Z,1.40
2019-01-09T08:44:39.565Z,1.30
2019-01-09T08:45:39.560Z,1.80
2019-01-09T08:46:39.541Z,1.80
2019-01-09T08:47:39.533Z,1.80
2019-01-09T08:48:39.538Z,1.80
2019-01-09T08:49:39.512Z,1.40
2019-01-09T08:50:39.495Z,1.60
2019-01-09T08:51:39.501Z,1.20
2019-01-09T08:52:39.477Z,1.10
2019-01-09T08:53:39.505Z,1.10
2019-01-09T08:54:39.458Z,1.10
2019-01-09T08:55:39.453Z,1.20
2019-01-09T08:56:39.446Z,1.40
2019-01-09T08:57:39.439Z,1.10
2019-01-09T08:58:39.417Z,1.00
2019-01-09T08:59:39.439Z,1.10
2019-01-09T09:00:39.388Z,1.20
2019-01-09T09:01:39.377Z,1.30
2019-01-09T09:02:39.386Z,1.20
2019-01-09T09:03:39.366Z,1.90
2019-01-09T09:04:39.374Z,2.00
2019-01-09T09:05:39.349Z,1.80
2019-01-09T09:06:39.332Z,1.90
2019-01-09T09:07:39.677Z,1.50
2019-01-09T09:08:39.309Z,1.40
2019-01-09T09:09:39.321Z,1.30
2019-01-09T09:10:39.285Z,1.30
2019-01-09T09:11:39.279Z,1.40
2019-01-09T09:12:39.260Z,1.20
2019-01-09T09:13:39.247Z,1.50
2019-01-09T09:14:39.278Z,1.30
2019-01-09T09:15:39.243Z,1.50
2019-01-09T09:16:39.218Z,1.40
2019-01-09T09:17:39.219Z,1.10
2019-01-09T09:18:39.230Z,1.30
2019-01-09T09:19:39.186Z,1.30
2019-01-09T09:20:39.195Z,1.20
2019-01-09T09:21:39.172Z,1.20
2019-01-09T09:22:39.276Z,1.40
2019-01-09T09:23:39.160Z,1.50
2019-01-09T09:24:39.140Z,1.10
2019-01-09T09:25:39.166Z,1.00
2019-01-09T09:26:39.123Z,1.20
2019-01-09T09:27:39.109Z,1.10
2019-01-09T09:28:39.094Z,1.30
2019-01-09T09:29:39.142Z,1.40
2019-01-09T09:30:39.111Z,1.10
2019-01-09T09:31:39.069Z,1.30
2019-01-09T09:32:39.056Z,1.20
2019-01-09T09:33:39.039Z,1.10
2019-01-09T09:34:39.052Z,1.10
2019-01-09T09:35:39.045Z,0.90
2019-01-09T09:36:39.012Z,1.40
2019-01-09T09:37:39.004Z,1.40
2019-01-09T09:38:39.000Z,1.30
2019-01-09T09:39:38.980Z,1.30
2019-01-09T09:40:39.033Z,1.40
2019-01-09T09:41:38.956Z,1.30
2019-01-09T09:42:38.946Z,1.20
2019-01-09T09:43:38.946Z,1.50
2019-01-09T09:44:38.927Z,2.00
2019-01-09T09:45:38.933Z,1.80
2019-01-09T09:46:38.903Z,3.90
2019-01-09T09:47:38.899Z,2.20
2019-01-09T09:48:38.884Z,2.20
2019-01-09T09:49:38.876Z,4.00
2019-01-09T09:50:38.881Z,1.90
2019-01-09T09:51:38.849Z,1.40
2019-01-09T09:52:38.835Z,1.20
2019-01-09T09:53:38.830Z,1.00
2019-01-09T09:54:38.826Z,1.30
2019-01-09T09:55:38.825Z,1.40
2019-01-09T09:56:38.794Z,1.10
2019-01-09T09:57:38.786Z,1.10
2019-01-09T09:58:38.874Z,1.40
2019-01-09T09:59:38.783Z,1.30
2019-01-09T10:00:38.804Z,1.20
2019-01-09T10:01:38.780Z,1.10
2019-01-09T10:02:38.731Z,1.50
2019-01-09T10:03:38.731Z,1.30
2019-01-09T10:04:38.713Z,1.10
2019-01-09T10:05:38.698Z,1.40
2019-01-09T10:06:38.704Z,1.70
2019-01-09T10:07:38.698Z,1.30
2019-01-09T10:08:38.683Z,1.30
2019-01-09T10:09:38.658Z,1.00
2019-01-09T10:10:39.389Z,1.00
2019-01-09T10:11:38.654Z,1.20
2019-01-09T10:12:38.631Z,1.40
2019-01-09T10:13:38.633Z,1.30
2019-01-09T10:14:38.605Z,1.30
2019-01-09T10:15:38.609Z,1.20
2019-01-09T10:16:38.606Z,1.00
2019-01-09T10:17:38.576Z,1.40
2019-01-09T10:18:38.570Z,1.40
2019-01-09T10:19:38.568Z,1.20
2019-01-09T10:20:38.542Z,1.00
2019-01-09T10:21:38.558Z,1.20
2019-01-09T10:22:38.519Z,1.20
2019-01-09T10:23:38.519Z,1.10
2019-01-09T10:24:38.519Z,1.70
2019-01-09T10:25:38.517Z,1.30
2019-01-09T10:26:38.520Z,1.20
2019-01-09T10:27:38.474Z,1.40
2019-01-09T10:28:38.473Z,1.40
2019-01-09T10:29:38.462Z,1.30
2019-01-09T10:30:38.541Z,1.10
2019-01-09T10:31:38.476Z,1.30
2019-01-09T10:32:38.412Z,1.10
2019-01-09T10:33:38.404Z,1.40
2019-01-09T10:34:38.394Z,1.30
2019-01-09T10:35:38.396Z,1.00
2019-01-09T10:36:38.399Z,1.10
2019-01-09T10:37:38.365Z,1.00
2019-01-09T10:38:38.498Z,1.10
2019-01-09T10:39:38.354Z,1.40
2019-01-09T10:40:38.325Z,1.20
2019-01-09T10:41:38.367Z,1.30
2019-01-09T10:42:38.306Z,1.20
2019-01-09T10:43:38.304Z,0.90
2019-01-09T10:44:38.291Z,1.20
2019-01-09T10:45:38.283Z,1.10
2019-01-09T10:46:38.294Z,1.20
2019-01-09T10:47:38.268Z,1.20
2019-01-09T10:48:38.264Z,1.10
2019-01-09T10:49:38.234Z,1.10
2019-01-09T10:50:38.220Z,1.00
2019-01-09T10:51:38.255Z,0.90
2019-01-09T10:52:38.313Z,1.10
2019-01-09T10:53:38.204Z,1.00
2019-01-09T10:54:38.175Z,1.20
2019-01-09T10:55:38.171Z,0.90
2019-01-09T10:56:38.182Z,1.40
2019-01-09T10:57:38.148Z,1.30
2019-01-09T10:58:38.222Z,1.30
2019-01-09T10:59:38.155Z,1.30
2019-01-09T11:00:38.123Z,1.00
2019-01-09T11:01:38.162Z,1.60
2019-01-09T11:02:38.103Z,2.40
2019-01-09T11:03:38.087Z,1.40
2019-01-09T11:04:38.091Z,1.40
2019-01-09T11:05:38.073Z,1.60
2019-01-09T11:06:38.102Z,1.40
2019-01-09T11:07:38.050Z,1.10
2019-01-09T11:08:46.682Z,1.00
2019-01-09T11:09:39.020Z,1.20
2019-01-09T11:10:38.020Z,2.60
2019-01-09T11:11:38.009Z,1.60
2019-01-09T11:12:38.037Z,1.50
2019-01-09T11:13:37.981Z,1.30
2019-01-09T11:14:37.974Z,1.20
2019-01-09T11:15:37.983Z,1.10
2019-01-09T11:16:37.964Z,1.10
2019-01-09T11:17:37.979Z,1.40
2019-01-09T11:18:37.929Z,1.20
2019-01-09T11:19:37.918Z,1.60
2019-01-09T11:20:37.906Z,1.10
2019-01-09T11:21:37.900Z,1.00
2019-01-09T11:22:37.902Z,1.10
2019-01-09T11:23:37.875Z,0.90
2019-01-09T11:24:37.867Z,0.90
2019-01-09T11:25:37.854Z,1.40
2019-01-09T11:26:37.842Z,1.40
2019-01-09T11:27:37.940Z,1.50
2019-01-09T11:28:37.826Z,1.20
2019-01-09T11:29:37.859Z,0.90
2019-01-09T11:30:37.794Z,1.20
2019-01-09T11:31:37.791Z,1.20
2019-01-09T11:32:37.806Z,1.20
2019-01-09T11:33:37.833Z,1.00
2019-01-09T11:34:37.824Z,1.10
2019-01-09T11:35:37.747Z,0.80
2019-01-09T11:36:37.743Z,1.20
2019-01-09T11:37:37.759Z,1.70
2019-01-09T11:38:37.723Z,1.40
2019-01-09T11:39:37.764Z,1.10
2019-01-09T11:40:37.752Z,1.30
2019-01-09T11:41:37.690Z,1.20
2019-01-09T11:42:37.693Z,1.00
2019-01-09T11:43:37.756Z,1.20
2019-01-09T11:44:37.655Z,1.40
2019-01-09T11:45:37.634Z,1.00
2019-01-09T11:46:37.630Z,1.30
2019-01-09T11:47:37.661Z,1.30
2019-01-09T11:48:37.700Z,1.30
2019-01-09T11:49:37.596Z,1.10
2019-01-09T11:50:37.591Z,1.10
2019-01-09T11:51:37.572Z,1.20
2019-01-09T11:52:37.612Z,1.30
2019-01-09T11:53:37.564Z,1.20
2019-01-09T11:54:37.564Z,1.20
2019-01-09T11:55:37.536Z,1.20
2019-01-09T11:56:37.525Z,1.20
2019-01-09T11:57:37.514Z,1.40
2019-01-09T11:58:37.561Z,1.20
2019-01-09T11:59:37.495Z,1.20
2019-01-09T12:00:37.482Z,1.20
2019-01-09T12:01:37.474Z,1.30
2019-01-09T12:02:37.460Z,1.00
2019-01-09T12:03:37.497Z,1.10
2019-01-09T12:04:37.438Z,1.10
2019-01-09T12:05:37.439Z,1.10
2019-01-09T12:06:37.413Z,1.20
2019-01-09T12:07:37.405Z,1.20
2019-01-09T12:08:37.418Z,1.40
2019-01-09T12:09:37.380Z,1.10
2019-01-09T12:10:37.384Z,1.30
2019-01-09T12:11:37.376Z,1.40
2019-01-09T12:12:37.356Z,1.30
2019-01-09T12:13:37.366Z,1.20
2019-01-09T12:14:37.402Z,1.40
2019-01-09T12:15:37.329Z,1.40
2019-01-09T12:16:37.343Z,1.30
2019-01-09T12:17:37.303Z,1.20
2019-01-09T12:18:37.356Z,1.30
2019-01-09T12:19:37.299Z,1.00
2019-01-09T12:20:37.270Z,1.20
2019-01-09T12:21:37.256Z,1.30
2019-01-09T12:22:37.257Z,3.30
2019-01-09T12:23:37.888Z,2.90
2019-01-09T12:24:37.223Z,2.20
2019-01-09T12:25:37.235Z,3.30
2019-01-09T12:26:37.210Z,2.90
2019-01-09T12:27:37.190Z,4.50
2019-01-09T12:28:37.210Z,3.70
2019-01-09T12:29:37.171Z,1.50
2019-01-09T12:30:37.171Z,1.60
2019-01-09T12:31:37.162Z,1.60
2019-01-09T12:32:37.151Z,1.40
2019-01-09T12:33:37.161Z,1.50
2019-01-09T12:34:37.124Z,1.40
2019-01-09T12:35:37.118Z,1.30
2019-01-09T12:36:37.115Z,1.40
2019-01-09T12:37:37.165Z,1.80
2019-01-09T12:38:37.084Z,1.50
2019-01-09T12:39:37.093Z,1.50
2019-01-09T12:40:37.069Z,1.30
2019-01-09T12:41:37.049Z,1.60
2019-01-09T12:42:37.059Z,1.40
2019-01-09T12:43:37.039Z,1.50
2019-01-09T12:44:37.027Z,1.30
2019-01-09T12:45:37.002Z,1.20
2019-01-09T12:46:36.995Z,1.60
2019-01-09T12:47:36.978Z,1.70
2019-01-09T12:48:36.991Z,1.50
2019-01-09T12:49:37.070Z,1.60
2019-01-09T12:50:36.949Z,1.70
2019-01-09T12:51:36.936Z,1.80
2019-01-09T12:52:36.925Z,1.70
2019-01-09T12:53:36.933Z,1.70
2019-01-09T12:54:36.944Z,2.60
2019-01-09T12:55:36.896Z,4.10
2019-01-09T12:56:36.936Z,5.30
2019-01-09T12:57:38.744Z,5.20
2019-01-09T12:58:36.886Z,1.20
2019-01-09T12:59:36.951Z,1.40
2019-01-09T13:00:36.969Z,2.30
2019-01-09T13:01:36.843Z,1.60
2019-01-09T13:02:36.836Z,1.40
2019-01-09T13:03:38.900Z,1.30
2019-01-09T13:04:36.921Z,1.10
2019-01-09T13:05:36.866Z,1.30
2019-01-09T13:06:36.809Z,1.50
2019-01-09T13:07:36.782Z,1.20
2019-01-09T13:08:36.785Z,1.30
2019-01-09T13:09:36.867Z,1.30
2019-01-09T13:10:36.846Z,1.20
2019-01-09T13:11:36.807Z,1.60
2019-01-09T13:12:36.777Z,1.20
2019-01-09T13:13:36.749Z,1.30
2019-01-09T13:14:36.719Z,1.30
2019-01-09T13:15:36.808Z,1.20
2019-01-09T13:16:36.718Z,1.40
2019-01-09T13:17:36.771Z,1.40
2019-01-09T13:19:37.868Z,1.60